MMOX/OAX METAR and TAF weather

Enter ICAO airport designator
Station Type Date Time Source
MMOX METAR 2019/12/12 01:46 UTC NOAA

MMOX 120146Z 31009KT 7SM SKC 17/09 A3034


Station Type Date Time Source
MMOX Decoded METAR 2019/12/12 01:46 UTC NOAA

Oaxaca / Xoxocotlan, Mexico (MMOX) 16-58N 096-44W
Dec 11, 2019 - 08:46 PM EST / 2019.12.12 0146 UTC
Wind: from the NW (310 degrees) at 10 MPH (9 KT):0
Visibility: 7 mile(s):0
Sky conditions: clear
Temperature: 62 F (17 C)
Dew Point: 48 F (9 C)
Relative Humidity: 59%
Pressure (altimeter): 30.34 in. Hg (1027 hPa)
ob: MMOX 120146Z 31009KT 7SM SKC 17/09 A3034
cycle: 2

Station Type Date Time Source
MMOX TAF 2019/12/12 06:45 UTC NOAA

TAF MMOX 120438Z 1206/1306 36005KT P6SM SKC
FM121800 02012KT P6SM SCT025
TEMPO 1221/1301 BKN025
FM130600 05005KT P6SM SKC

Example: see airport list